sensor_id;sensor_type;location;lat;lon;timestamp;P1;durP1;ratioP1;P2;durP2;ratioP2
38248;SDS011;24045;51.138;17.126;2023-04-25T00:08:28;5.30;;;1.90;;
38248;SDS011;24045;51.138;17.126;2023-04-25T00:23:32;4.00;;;1.70;;
38248;SDS011;24045;51.138;17.126;2023-04-25T00:38:35;3.70;;;1.60;;
38248;SDS011;24045;51.138;17.126;2023-04-25T01:08:41;4.20;;;1.50;;
38248;SDS011;24045;51.138;17.126;2023-04-25T01:23:45;2.00;;;1.30;;
38248;SDS011;24045;51.138;17.126;2023-04-25T01:38:49;3.90;;;1.60;;
38248;SDS011;24045;51.138;17.126;2023-04-25T01:53:52;3.80;;;2.00;;
38248;SDS011;24045;51.138;17.126;2023-04-25T02:08:56;5.00;;;2.60;;
38248;SDS011;24045;51.138;17.126;2023-04-25T02:23:59;5.80;;;2.60;;
38248;SDS011;24045;51.138;17.126;2023-04-25T02:39:02;6.50;;;3.40;;
38248;SDS011;24045;51.138;17.126;2023-04-25T02:54:05;6.60;;;3.30;;
38248;SDS011;24045;51.138;17.126;2023-04-25T03:09:08;7.60;;;3.70;;
38248;SDS011;24045;51.138;17.126;2023-04-25T03:24:11;6.40;;;3.50;;
38248;SDS011;24045;51.138;17.126;2023-04-25T03:39:14;7.40;;;3.90;;
38248;SDS011;24045;51.138;17.126;2023-04-25T03:54:18;8.90;;;5.00;;
38248;SDS011;24045;51.138;17.126;2023-04-25T04:09:21;10.10;;;5.10;;
38248;SDS011;24045;51.138;17.126;2023-04-25T04:39:29;12.30;;;6.40;;
38248;SDS011;24045;51.138;17.126;2023-04-25T04:54:31;12.60;;;7.10;;
38248;SDS011;24045;51.138;17.126;2023-04-25T05:24:37;10.10;;;5.70;;
38248;SDS011;24045;51.138;17.126;2023-04-25T05:39:39;9.60;;;5.50;;
38248;SDS011;24045;51.138;17.126;2023-04-25T05:54:42;10.40;;;4.90;;
38248;SDS011;24045;51.138;17.126;2023-04-25T06:09:45;10.20;;;4.90;;
38248;SDS011;24045;51.138;17.126;2023-04-25T06:24:48;6.30;;;3.70;;
38248;SDS011;24045;51.138;17.126;2023-04-25T06:54:53;8.00;;;4.50;;
38248;SDS011;24045;51.138;17.126;2023-04-25T07:09:56;7.70;;;3.20;;
38248;SDS011;24045;51.138;17.126;2023-04-25T07:24:59;6.50;;;2.80;;
38248;SDS011;24045;51.138;17.126;2023-04-25T07:40:02;9.10;;;4.00;;
38248;SDS011;24045;51.138;17.126;2023-04-25T07:55:06;7.70;;;3.60;;
38248;SDS011;24045;51.138;17.126;2023-04-25T08:10:09;8.90;;;3.50;;
38248;SDS011;24045;51.138;17.126;2023-04-25T08:25:13;8.20;;;4.40;;
38248;SDS011;24045;51.138;17.126;2023-04-25T08:40:16;11.10;;;5.30;;
38248;SDS011;24045;51.138;17.126;2023-04-25T08:55:20;8.70;;;5.00;;
38248;SDS011;24045;51.138;17.126;2023-04-25T09:10:23;10.70;;;6.70;;
38248;SDS011;24045;51.138;17.126;2023-04-25T09:25:27;8.00;;;4.80;;
38248;SDS011;24045;51.138;17.126;2023-04-25T09:40:40;8.00;;;5.30;;
38248;SDS011;24045;51.138;17.126;2023-04-25T09:55:47;10.70;;;6.70;;
38248;SDS011;24045;51.138;17.126;2023-04-25T10:10:50;8.40;;;5.30;;
38248;SDS011;24045;51.138;17.126;2023-04-25T10:25:53;8.70;;;5.00;;
38248;SDS011;24045;51.138;17.126;2023-04-25T10:41:03;9.60;;;4.50;;
38248;SDS011;24045;51.138;17.126;2023-04-25T10:56:17;7.00;;;3.70;;
38248;SDS011;24045;51.138;17.126;2023-04-25T11:11:22;8.30;;;3.90;;
38248;SDS011;24045;51.138;17.126;2023-04-25T11:26:26;9.20;;;4.30;;
38248;SDS011;24045;51.138;17.126;2023-04-25T11:41:29;5.70;;;2.90;;
38248;SDS011;24045;51.138;17.126;2023-04-25T11:56:33;4.00;;;2.30;;
38248;SDS011;24045;51.138;17.126;2023-04-25T12:11:45;6.20;;;2.00;;
38248;SDS011;24045;51.138;17.126;2023-04-25T12:26:53;5.10;;;2.40;;
38248;SDS011;24045;51.138;17.126;2023-04-25T12:42:02;6.30;;;2.10;;
38248;SDS011;24045;51.138;17.126;2023-04-25T12:57:08;3.40;;;2.00;;
38248;SDS011;24045;51.138;17.126;2023-04-25T13:12:11;4.70;;;2.00;;
38248;SDS011;24045;51.138;17.126;2023-04-25T13:42:17;5.00;;;2.20;;
38248;SDS011;24045;51.138;17.126;2023-04-25T13:57:19;5.80;;;2.20;;
38248;SDS011;24045;51.138;17.126;2023-04-25T14:12:23;4.80;;;2.20;;
38248;SDS011;24045;51.138;17.126;2023-04-25T14:27:26;5.20;;;2.20;;
38248;SDS011;24045;51.138;17.126;2023-04-25T14:42:31;7.00;;;2.30;;
38248;SDS011;24045;51.138;17.126;2023-04-25T14:57:35;5.10;;;2.30;;
38248;SDS011;24045;51.138;17.126;2023-04-25T15:42:46;6.40;;;2.50;;
38248;SDS011;24045;51.138;17.126;2023-04-25T15:57:52;7.50;;;3.10;;
38248;SDS011;24045;51.138;17.126;2023-04-25T16:12:55;6.80;;;3.20;;
38248;SDS011;24045;51.138;17.126;2023-04-25T16:58:03;6.10;;;3.20;;
38248;SDS011;24045;51.138;17.126;2023-04-25T17:13:06;6.90;;;2.50;;
38248;SDS011;24045;51.138;17.126;2023-04-25T17:28:10;8.80;;;3.70;;
38248;SDS011;24045;51.138;17.126;2023-04-25T17:43:12;10.50;;;4.10;;
38248;SDS011;24045;51.138;17.126;2023-04-25T17:58:15;9.20;;;3.90;;
38248;SDS011;24045;51.138;17.126;2023-04-25T18:13:18;14.60;;;3.90;;
38248;SDS011;24045;51.138;17.126;2023-04-25T18:28:28;9.00;;;4.20;;
38248;SDS011;24045;51.138;17.126;2023-04-25T18:58:33;10.40;;;4.90;;
38248;SDS011;24045;51.138;17.126;2023-04-25T19:13:36;37.30;;;21.70;;
38248;SDS011;24045;51.138;17.126;2023-04-25T19:43:44;74.80;;;28.20;;
38248;SDS011;24045;51.138;17.126;2023-04-25T20:13:49;53.30;;;22.70;;
38248;SDS011;24045;51.138;17.126;2023-04-25T20:28:53;30.20;;;11.70;;
38248;SDS011;24045;51.138;17.126;2023-04-25T20:43:57;37.50;;;13.40;;
38248;SDS011;24045;51.138;17.126;2023-04-25T20:58:59;26.00;;;10.60;;
38248;SDS011;24045;51.138;17.126;2023-04-25T21:29:06;18.10;;;7.50;;
38248;SDS011;24045;51.138;17.126;2023-04-25T21:44:09;15.20;;;6.10;;
38248;SDS011;24045;51.138;17.126;2023-04-25T21:59:14;13.00;;;5.40;;
38248;SDS011;24045;51.138;17.126;2023-04-25T22:14:17;12.70;;;5.70;;
38248;SDS011;24045;51.138;17.126;2023-04-25T22:44:22;16.90;;;6.10;;
38248;SDS011;24045;51.138;17.126;2023-04-25T22:59:25;13.80;;;5.90;;
38248;SDS011;24045;51.138;17.126;2023-04-25T23:14:28;12.30;;;5.90;;
38248;SDS011;24045;51.138;17.126;2023-04-25T23:29:31;13.90;;;5.70;;
38248;SDS011;24045;51.138;17.126;2023-04-25T23:44:35;13.10;;;6.60;;
38248;SDS011;24045;51.138;17.126;2023-04-25T23:59:38;17.10;;;7.70;;
